Time;durP1;ratioP1;P1;durP2;ratioP2;P2;SDS_P1;SDS_P2;PMS_P1;PMS_P2;Temp;Humidity;BMP_temperature;BMP_pressure;BME280_temperature;BME280_humidity;BME280_pressure;Samples;Min_cycle;Max_cycle;Signal;HPM_P1;HPM_P2
2023/08/16 00:01:57;;;;;;;0.20;0.20;;;22.30;99.90;;;;;;4401873;32;20074;-75
2023/08/16 00:04:23;;;;;;;0.77;0.68;;;22.30;99.90;;;;;;4402136;32;20075;-75
2023/08/16 00:06:49;;;;;;;0.20;0.20;;;22.50;99.90;;;;;;4401105;32;20424;-74
2023/08/16 00:09:16;;;;;;;0.20;0.20;;;22.50;99.90;;;;;;4402394;32;20074;-75
2023/08/16 00:11:42;;;;;;;1.12;1.00;;;22.60;99.90;;;;;;4401266;32;20086;-75
2023/08/16 00:14:07;;;;;;;0.22;0.22;;;22.60;99.90;;;;;;4401386;32;20070;-75
2023/08/16 00:16:33;;;;;;;0.20;0.20;;;22.50;99.90;;;;;;4401535;32;20073;-75
2023/08/16 00:18:58;;;;;;;0.47;0.45;;;22.40;99.90;;;;;;4401668;32;20077;-75
2023/08/16 00:21:24;;;;;;;0.20;0.20;;;22.40;99.90;;;;;;4401774;32;20086;-75
2023/08/16 00:23:50;;;;;;;0.20;0.20;;;22.50;99.90;;;;;;4401503;32;20494;-75
2023/08/16 00:26:15;;;;;;;0.32;0.32;;;22.50;99.90;;;;;;4401674;32;20065;-75
2023/08/16 00:28:42;;;;;;;0.30;0.30;;;22.50;99.90;;;;;;4402099;32;20473;-75
2023/08/16 00:31:07;;;;;;;1.12;0.93;;;22.50;99.90;;;;;;4401506;32;20070;-74
2023/08/16 00:33:33;;;;;;;0.20;0.20;;;22.50;99.90;;;;;;4403556;32;20518;-75
2023/08/16 00:35:58;;;;;;;0.47;0.45;;;22.50;99.90;;;;;;4401341;32;20066;-75
2023/08/16 00:38:24;;;;;;;0.35;0.35;;;22.40;99.90;;;;;;4401631;32;20066;-75
2023/08/16 00:40:50;;;;;;;1.10;0.43;;;22.30;99.90;;;;;;4401442;32;20133;-75
2023/08/16 00:43:16;;;;;;;0.20;0.20;;;22.30;99.90;;;;;;4401885;32;20117;-75
2023/08/16 00:45:44;;;;;;;2.08;0.50;;;22.10;99.90;;;;;;4401129;32;20077;-75
2023/08/16 00:48:10;;;;;;;0.30;0.30;;;22.10;99.90;;;;;;4401141;32;20141;-75
2023/08/16 00:50:35;;;;;;;0.30;0.30;;;22.00;99.90;;;;;;4401221;32;20447;-74
2023/08/16 00:53:01;;;;;;;0.15;0.15;;;22.00;99.90;;;;;;4402727;32;20545;-75
2023/08/16 00:55:27;;;;;;;0.60;0.60;;;22.00;99.90;;;;;;4402076;32;20070;-74
2023/08/16 00:57:53;;;;;;;0.50;0.50;;;22.10;99.90;;;;;;4402280;32;20062;-75
2023/08/16 01:00:19;;;;;;;0.37;0.37;;;22.10;99.90;;;;;;4402260;32;20129;-75
2023/08/16 01:02:44;;;;;;;0.30;0.30;;;22.10;99.90;;;;;;4402386;32;20593;-75
2023/08/16 01:05:10;;;;;;;0.35;0.30;;;22.10;99.90;;;;;;4402119;32;20082;-75
2023/08/16 01:07:35;;;;;;;2.03;0.77;;;22.10;99.90;;;;;;4403065;32;20065;-74
2023/08/16 01:10:01;;;;;;;0.55;0.40;;;22.10;99.90;;;;;;4401283;32;20078;-75
2023/08/16 01:12:36;;;;;;;0.40;0.40;;;22.10;99.90;;;;;;4401619;32;20081;-75
2023/08/16 01:15:20;;;;;;;0.20;0.20;;;22.00;99.90;;;;;;4394151;32;20129;-74
2023/08/16 01:17:47;;;;;;;0.20;0.20;;;22.00;99.90;;;;;;4401179;32;20171;-74
2023/08/16 01:20:15;;;;;;;0.40;0.40;;;21.90;99.90;;;;;;4400914;32;20095;-74
2023/08/16 01:23:01;;;;;;;0.17;0.17;;;21.90;99.90;;;;;;4402065;32;20506;-74
2023/08/16 01:25:48;;;;;;;0.20;0.20;;;21.80;99.90;;;;;;4378698;32;20121;-74
2023/08/16 01:28:14;;;;;;;0.35;0.30;;;21.90;99.90;;;;;;4401566;32;20094;-75
2023/08/16 01:30:41;;;;;;;0.70;0.40;;;21.80;99.90;;;;;;4401369;32;20530;-75
2023/08/16 01:33:08;;;;;;;0.28;0.28;;;21.80;99.90;;;;;;4401793;32;20070;-75
2023/08/16 01:35:35;;;;;;;0.10;0.10;;;21.90;99.90;;;;;;4400519;32;20082;-74
2023/08/16 01:38:01;;;;;;;0.30;0.30;;;21.90;99.90;;;;;;4400787;32;20066;-75
2023/08/16 01:40:34;;;;;;;0.40;0.40;;;21.90;99.90;;;;;;4401900;32;20077;-75
2023/08/16 01:43:01;;;;;;;0.82;0.37;;;22.00;99.90;;;;;;4399974;32;20078;-75
2023/08/16 01:45:27;;;;;;;0.40;0.40;;;22.00;99.90;;;;;;4400669;32;20066;-75
2023/08/16 01:47:54;;;;;;;0.40;0.40;;;21.90;99.90;;;;;;4400216;32;20416;-75
2023/08/16 01:50:20;;;;;;;0.47;0.40;;;21.80;99.90;;;;;;4400094;32;20066;-74
2023/08/16 01:52:47;;;;;;;0.20;0.20;;;21.80;99.90;;;;;;4400832;32;20062;-75
2023/08/16 01:55:12;;;;;;;0.20;0.20;;;21.70;99.90;;;;;;4400714;32;20081;-75
2023/08/16 01:57:38;;;;;;;0.43;0.43;;;21.70;99.90;;;;;;4400714;32;20133;-75
2023/08/16 02:00:04;;;;;;;1.08;0.43;;;21.60;99.90;;;;;;4401132;32;20125;-74
2023/08/16 02:02:30;;;;;;;0.30;0.30;;;21.60;99.90;;;;;;4402635;32;20074;-75
2023/08/16 02:04:55;;;;;;;0.32;0.32;;;21.60;99.90;;;;;;4401046;32;20420;-74
2023/08/16 02:07:21;;;;;;;0.50;0.40;;;21.70;99.90;;;;;;4400405;32;20071;-75
2023/08/16 02:09:46;;;;;;;0.40;0.40;;;21.70;99.90;;;;;;4398902;32;20467;-74
2023/08/16 02:12:12;;;;;;;0.30;0.30;;;21.70;99.90;;;;;;4396907;32;20423;-75
2023/08/16 02:14:37;;;;;;;0.75;0.40;;;21.70;99.90;;;;;;4398711;32;20070;-75
2023/08/16 02:17:03;;;;;;;0.70;0.45;;;21.70;99.90;;;;;;4401389;32;20125;-75
2023/08/16 02:19:28;;;;;;;3.75;0.82;;;21.60;99.90;;;;;;4400188;32;20419;-74
2023/08/16 02:21:54;;;;;;;0.40;0.40;;;21.50;99.90;;;;;;4399738;32;20121;-74
2023/08/16 02:24:19;;;;;;;0.25;0.25;;;21.60;99.90;;;;;;4400332;32;20514;-74
2023/08/16 02:26:45;;;;;;;0.30;0.30;;;21.50;99.90;;;;;;4399831;32;20152;-75
2023/08/16 02:29:10;;;;;;;0.30;0.30;;;21.50;99.90;;;;;;4399782;32;20066;-75
2023/08/16 02:31:36;;;;;;;0.32;0.32;;;21.60;99.90;;;;;;4400098;32;20078;-74
2023/08/16 02:34:01;;;;;;;0.20;0.20;;;21.60;99.90;;;;;;4399832;32;20073;-74
2023/08/16 02:36:26;;;;;;;0.45;0.30;;;21.60;99.90;;;;;;4400056;32;20087;-74
2023/08/16 02:38:52;;;;;;;0.40;0.40;;;21.70;99.90;;;;;;4399554;32;20087;-74
2023/08/16 02:41:18;;;;;;;0.32;0.32;;;21.50;99.90;;;;;;4400031;32;20078;-74
2023/08/16 02:43:43;;;;;;;0.17;0.17;;;21.50;99.90;;;;;;4399990;32;20074;-74
2023/08/16 02:46:08;;;;;;;0.20;0.20;;;21.60;99.90;;;;;;4399393;32;20090;-74
2023/08/16 02:48:34;;;;;;;0.20;0.20;;;21.70;99.90;;;;;;4399793;32;20125;-75
2023/08/16 02:50:59;;;;;;;0.20;0.20;;;21.70;99.90;;;;;;4399801;32;20059;-75
2023/08/16 02:53:25;;;;;;;0.40;0.40;;;21.70;99.90;;;;;;4400449;32;20124;-75
2023/08/16 02:55:50;;;;;;;0.20;0.20;;;21.60;99.90;;;;;;4399918;32;20059;-74
2023/08/16 02:58:16;;;;;;;0.50;0.50;;;21.50;99.90;;;;;;4399831;32;20074;-75
2023/08/16 03:00:41;;;;;;;0.40;0.40;;;21.50;99.90;;;;;;4399744;32;20074;-75
2023/08/16 03:03:07;;;;;;;1.35;0.40;;;21.50;99.90;;;;;;4400026;32;20073;-75
2023/08/16 03:05:32;;;;;;;0.20;0.20;;;21.50;99.90;;;;;;4400264;32;20087;-74
2023/08/16 03:07:58;;;;;;;0.37;0.30;;;21.60;99.90;;;;;;4399945;32;20074;-74
2023/08/16 03:10:23;;;;;;;0.30;0.30;;;21.50;99.90;;;;;;4399994;32;20062;-75
2023/08/16 03:12:49;;;;;;;0.20;0.20;;;21.50;99.90;;;;;;4403556;32;20069;-74
2023/08/16 03:15:14;;;;;;;0.30;0.30;;;21.60;99.90;;;;;;4404376;32;20502;-74
2023/08/16 03:17:39;;;;;;;1.45;0.30;;;21.60;99.90;;;;;;4404533;32;20082;-75
2023/08/16 03:20:07;;;;;;;0.60;0.60;;;21.60;99.90;;;;;;4403022;32;20086;-75
2023/08/16 03:22:33;;;;;;;0.30;0.30;;;21.50;99.90;;;;;;4401490;32;20078;-75
2023/08/16 03:24:58;;;;;;;1.75;0.55;;;21.40;99.90;;;;;;4404126;32;20071;-74
2023/08/16 03:27:24;;;;;;;0.68;0.40;;;21.40;99.90;;;;;;4403958;32;20082;-75
2023/08/16 03:29:49;;;;;;;0.50;0.50;;;21.40;99.90;;;;;;4405342;32;20066;-74
2023/08/16 03:32:15;;;;;;;0.17;0.17;;;21.40;99.90;;;;;;4404988;32;20143;-74
2023/08/16 03:34:42;;;;;;;0.25;0.25;;;21.40;99.90;;;;;;4404523;32;20066;-74
2023/08/16 03:37:07;;;;;;;0.37;0.37;;;21.40;99.90;;;;;;4390068;32;20082;-75
2023/08/16 03:39:33;;;;;;;0.68;0.52;;;21.30;99.90;;;;;;4390315;32;20071;-74
2023/08/16 03:41:58;;;;;;;1.65;0.50;;;21.30;99.90;;;;;;4389301;32;20062;-75
2023/08/16 03:44:23;;;;;;;0.30;0.30;;;21.20;99.90;;;;;;4390595;32;20070;-75
2023/08/16 03:46:49;;;;;;;0.30;0.30;;;21.30;99.90;;;;;;4403213;32;20116;-74
2023/08/16 03:49:14;;;;;;;1.77;0.45;;;21.20;99.90;;;;;;4405039;32;20070;-74
2023/08/16 03:51:40;;;;;;;0.37;0.37;;;21.10;99.90;;;;;;4404186;32;20090;-74
2023/08/16 03:54:05;;;;;;;0.20;0.20;;;21.10;99.90;;;;;;4404165;32;20095;-74
2023/08/16 03:56:31;;;;;;;0.20;0.20;;;21.10;99.90;;;;;;4403851;32;20070;-75
2023/08/16 03:58:56;;;;;;;2.03;0.93;;;21.10;99.90;;;;;;4404911;32;20117;-75
2023/08/16 04:01:22;;;;;;;0.30;0.30;;;21.20;99.90;;;;;;4403475;32;20086;-74
2023/08/16 04:03:48;;;;;;;0.28;0.28;;;21.20;99.90;;;;;;4403672;32;20084;-74
2023/08/16 04:06:13;;;;;;;0.45;0.45;;;21.10;99.90;;;;;;4404025;32;20094;-74
2023/08/16 04:08:39;;;;;;;0.40;0.40;;;21.20;99.90;;;;;;4403239;32;20118;-74
2023/08/16 04:11:05;;;;;;;0.73;0.70;;;21.10;99.90;;;;;;4402094;32;20133;-74
2023/08/16 04:13:32;;;;;;;0.50;0.50;;;21.10;99.90;;;;;;4403014;32;20432;-74
2023/08/16 04:15:57;;;;;;;0.30;0.30;;;21.10;99.90;;;;;;4402696;32;20102;-74
2023/08/16 04:18:24;;;;;;;0.20;0.20;;;21.10;99.90;;;;;;4403540;32;20070;-74
2023/08/16 04:20:50;;;;;;;0.40;0.40;;;21.00;99.90;;;;;;4402038;32;20091;-74
2023/08/16 04:23:15;;;;;;;0.20;0.20;;;20.90;99.90;;;;;;4398663;32;20079;-74
2023/08/16 04:25:41;;;;;;;0.68;0.60;;;20.90;99.90;;;;;;4400898;32;20407;-74
2023/08/16 04:28:06;;;;;;;0.70;0.68;;;20.90;99.90;;;;;;4400259;32;20117;-74
2023/08/16 04:30:32;;;;;;;0.35;0.35;;;20.90;99.90;;;;;;4400372;32;20078;-74
2023/08/16 04:32:58;;;;;;;5.85;0.75;;;20.80;99.90;;;;;;4400218;32;20455;-74
2023/08/16 04:35:23;;;;;;;0.60;0.40;;;20.80;99.90;;;;;;4400513;32;20070;-74
2023/08/16 04:37:49;;;;;;;0.28;0.28;;;20.90;99.90;;;;;;4400244;32;20097;-74
2023/08/16 04:40:14;;;;;;;0.40;0.40;;;20.90;99.90;;;;;;4399279;32;20081;-73
2023/08/16 04:42:40;;;;;;;1.55;0.60;;;20.80;99.90;;;;;;4400263;32;20062;-74
2023/08/16 04:45:06;;;;;;;1.45;0.50;;;20.80;99.90;;;;;;4400387;32;20066;-74
2023/08/16 04:47:31;;;;;;;1.27;0.73;;;20.70;99.90;;;;;;4400620;32;20062;-74
2023/08/16 04:49:58;;;;;;;0.73;0.70;;;20.60;99.90;;;;;;4400324;32;20066;-74
2023/08/16 04:52:24;;;;;;;1.02;0.98;;;20.60;99.90;;;;;;4400670;32;20550;-74
2023/08/16 04:54:49;;;;;;;0.47;0.40;;;20.60;99.90;;;;;;4400631;32;20070;-73
2023/08/16 04:57:15;;;;;;;0.65;0.60;;;20.60;99.90;;;;;;4398959;32;20552;-73
2023/08/16 04:59:40;;;;;;;1.67;0.60;;;20.60;99.90;;;;;;4398682;32;20074;-74
2023/08/16 05:02:05;;;;;;;2.50;0.68;;;20.70;99.90;;;;;;4388885;32;20118;-74
2023/08/16 05:04:31;;;;;;;1.80;0.70;;;20.70;99.90;;;;;;4384922;32;20117;-74
2023/08/16 05:06:57;;;;;;;0.55;0.55;;;20.80;99.90;;;;;;4396483;32;20070;-74
2023/08/16 05:09:22;;;;;;;1.25;0.85;;;20.80;99.90;;;;;;4400328;32;20074;-74
2023/08/16 05:11:48;;;;;;;0.43;0.43;;;20.80;99.90;;;;;;4384841;32;20063;-73
2023/08/16 05:14:14;;;;;;;0.77;0.62;;;20.80;99.90;;;;;;4385288;32;20070;-73
2023/08/16 05:16:39;;;;;;;0.75;0.75;;;20.80;99.90;;;;;;4385062;32;20062;-73
2023/08/16 05:19:05;;;;;;;0.90;0.50;;;20.90;99.90;;;;;;4385036;32;20065;-73
2023/08/16 05:21:30;;;;;;;0.40;0.40;;;20.80;99.90;;;;;;4386673;32;20066;-73
2023/08/16 05:23:56;;;;;;;0.95;0.88;;;20.90;99.90;;;;;;4385624;32;20129;-74
2023/08/16 05:26:21;;;;;;;0.47;0.47;;;20.80;99.90;;;;;;4393618;32;20066;-73
2023/08/16 05:28:46;;;;;;;0.40;0.40;;;20.90;99.90;;;;;;4400761;32;20566;-73
2023/08/16 05:31:13;;;;;;;1.45;0.40;;;20.90;99.90;;;;;;4399738;32;20079;-74
2023/08/16 05:33:39;;;;;;;0.30;0.30;;;20.80;99.90;;;;;;4399537;32;20083;-74
2023/08/16 05:36:05;;;;;;;0.50;0.50;;;20.90;99.90;;;;;;4400885;32;20070;-73
2023/08/16 05:38:31;;;;;;;0.60;0.50;;;20.90;99.90;;;;;;4400252;32;20073;-74
2023/08/16 05:40:58;;;;;;;1.08;0.55;;;20.90;99.90;;;;;;4400177;32;20087;-74
2023/08/16 05:43:23;;;;;;;0.62;0.52;;;21.00;99.90;;;;;;4400119;32;20523;-73
2023/08/16 05:45:50;;;;;;;1.60;0.45;;;21.00;99.90;;;;;;4399865;32;20066;-73
2023/08/16 05:48:16;;;;;;;0.57;0.40;;;21.00;99.90;;;;;;4400102;32;20101;-74
2023/08/16 05:50:41;;;;;;;0.40;0.40;;;21.10;99.90;;;;;;4400083;32;20083;-73
2023/08/16 05:53:07;;;;;;;9.75;0.55;;;21.10;99.90;;;;;;4400499;32;20125;-74
2023/08/16 05:55:33;;;;;;;20.70;1.70;;;21.20;99.90;;;;;;4400757;32;20083;-74
2023/08/16 05:57:59;;;;;;;0.52;0.47;;;21.30;99.90;;;;;;4400472;32;20066;-74
2023/08/16 06:00:25;;;;;;;0.40;0.40;;;21.40;99.90;;;;;;4400043;32;20104;-74
2023/08/16 06:02:52;;;;;;;0.60;0.60;;;21.50;99.90;;;;;;4400200;32;20078;-74
2023/08/16 06:05:18;;;;;;;0.30;0.30;;;21.50;99.90;;;;;;4400676;32;20066;-74
2023/08/16 06:07:44;;;;;;;0.40;0.40;;;21.50;99.90;;;;;;4401657;32;20130;-73
2023/08/16 06:10:09;;;;;;;0.55;0.55;;;21.60;99.90;;;;;;4399624;32;20089;-73
2023/08/16 06:12:35;;;;;;;5.93;0.55;;;21.70;99.90;;;;;;4400492;32;20098;-73
2023/08/16 06:15:00;;;;;;;0.73;0.70;;;21.80;99.90;;;;;;4400251;32;20090;-73
2023/08/16 06:17:26;;;;;;;3.12;0.50;;;21.90;99.90;;;;;;4401684;32;20078;-74
2023/08/16 06:19:51;;;;;;;0.40;0.40;;;22.00;99.90;;;;;;4399646;32;20075;-74
2023/08/16 06:22:17;;;;;;;2.00;0.65;;;22.00;99.90;;;;;;4398625;32;20436;-74
2023/08/16 06:24:42;;;;;;;0.80;0.30;;;22.00;99.90;;;;;;4400060;32;20066;-75
2023/08/16 06:27:08;;;;;;;0.90;0.75;;;22.10;99.90;;;;;;4399955;32;20070;-73
2023/08/16 06:29:35;;;;;;;0.30;0.30;;;22.10;99.90;;;;;;4399886;32;20165;-74
2023/08/16 06:32:01;;;;;;;0.60;0.60;;;22.20;99.90;;;;;;4399927;32;20526;-74
2023/08/16 06:34:27;;;;;;;0.82;0.65;;;22.40;99.90;;;;;;4399539;32;20081;-74
2023/08/16 06:36:53;;;;;;;1.37;0.77;;;22.40;99.90;;;;;;4400633;32;20082;-74
2023/08/16 06:39:18;;;;;;;0.55;0.40;;;22.40;99.90;;;;;;4399622;32;20074;-73
2023/08/16 06:41:44;;;;;;;4.05;1.15;;;22.40;99.90;;;;;;4400879;32;20066;-74
2023/08/16 06:44:10;;;;;;;1.02;0.50;;;22.40;99.90;;;;;;4401123;32;20070;-74
2023/08/16 06:46:35;;;;;;;0.50;0.43;;;22.30;99.90;;;;;;4399866;32;20466;-74
2023/08/16 06:49:01;;;;;;;0.40;0.40;;;22.30;99.90;;;;;;4399936;32;20086;-73
2023/08/16 06:51:26;;;;;;;0.57;0.45;;;22.30;99.90;;;;;;4400007;32;20087;-74
2023/08/16 06:53:52;;;;;;;0.40;0.40;;;22.40;99.90;;;;;;4398727;32;20080;-74
2023/08/16 06:56:18;;;;;;;0.50;0.50;;;22.50;99.90;;;;;;4399509;32;20178;-74
2023/08/16 06:58:43;;;;;;;0.22;0.22;;;22.50;99.90;;;;;;4399014;32;20534;-74
2023/08/16 07:01:09;;;;;;;0.50;0.50;;;22.60;99.90;;;;;;4398951;32;20071;-74
2023/08/16 07:03:35;;;;;;;1.20;0.55;;;22.60;99.90;;;;;;4398689;32;20090;-74
2023/08/16 07:06:01;;;;;;;0.30;0.30;;;22.70;99.90;;;;;;4398343;32;20074;-74
2023/08/16 07:08:27;;;;;;;1.15;0.35;;;22.70;99.90;;;;;;4398502;32;20078;-74
2023/08/16 07:10:54;;;;;;;0.85;0.52;;;22.70;99.90;;;;;;4399266;32;20070;-74
2023/08/16 07:13:19;;;;;;;0.35;0.35;;;22.70;99.90;;;;;;4398807;32;20515;-74
2023/08/16 07:15:45;;;;;;;0.85;0.32;;;22.70;99.90;;;;;;4398939;32;20086;-75
2023/08/16 07:18:10;;;;;;;0.20;0.20;;;22.80;99.90;;;;;;4399124;32;20081;-74
2023/08/16 07:20:36;;;;;;;2.17;0.68;;;22.70;99.90;;;;;;4398886;32;20070;-74
2023/08/16 07:23:02;;;;;;;0.88;0.80;;;22.80;99.90;;;;;;4400030;32;20131;-74
2023/08/16 07:25:28;;;;;;;0.32;0.32;;;22.80;99.90;;;;;;4399685;32;20086;-74
2023/08/16 07:27:54;;;;;;;0.55;0.30;;;22.90;99.90;;;;;;4398321;32;20518;-74
2023/08/16 07:30:19;;;;;;;0.93;0.73;;;22.90;99.90;;;;;;4397961;32;20061;-74
2023/08/16 07:32:45;;;;;;;0.22;0.22;;;23.00;99.90;;;;;;4399374;32;20099;-74
2023/08/16 07:35:11;;;;;;;0.60;0.60;;;23.10;99.90;;;;;;4399970;32;20073;-74
2023/08/16 07:37:37;;;;;;;0.40;0.40;;;23.20;99.90;;;;;;4398821;32;20078;-74
2023/08/16 07:40:04;;;;;;;0.50;0.50;;;23.20;99.90;;;;;;4398983;32;20089;-74
2023/08/16 07:42:30;;;;;;;0.30;0.30;;;23.30;99.90;;;;;;4399089;32;20066;-75
2023/08/16 07:44:57;;;;;;;0.22;0.22;;;23.40;99.90;;;;;;4398569;32;20090;-74
2023/08/16 07:47:22;;;;;;;0.32;0.32;;;23.40;99.90;;;;;;4398421;32;20081;-74
2023/08/16 07:49:48;;;;;;;0.62;0.62;;;23.50;99.90;;;;;;4399311;32;20066;-74
2023/08/16 07:52:13;;;;;;;1.00;0.50;;;23.30;99.90;;;;;;4398603;32;20121;-75
2023/08/16 07:54:39;;;;;;;2.30;0.95;;;23.30;99.90;;;;;;4398038;32;20078;-74
2023/08/16 07:57:04;;;;;;;0.30;0.22;;;23.50;99.90;;;;;;4400560;32;20537;-75
2023/08/16 07:59:30;;;;;;;0.62;0.62;;;23.60;99.90;;;;;;4401509;32;20094;-74
2023/08/16 08:01:56;;;;;;;7.18;0.70;;;23.70;99.90;;;;;;4399522;32;20091;-74
2023/08/16 08:04:22;;;;;;;0.40;0.40;;;23.80;99.90;;;;;;4402744;32;20065;-74
2023/08/16 08:06:48;;;;;;;0.80;0.60;;;23.90;99.90;;;;;;4404335;32;20066;-74
2023/08/16 08:09:13;;;;;;;0.30;0.30;;;24.10;99.90;;;;;;4405088;32;20078;-74
2023/08/16 08:11:39;;;;;;;1.35;0.75;;;24.10;99.90;;;;;;4402799;32;20074;-74
2023/08/16 08:14:05;;;;;;;0.20;0.20;;;24.20;99.90;;;;;;4404677;32;20083;-74
2023/08/16 08:16:31;;;;;;;3.40;1.12;;;24.30;99.90;;;;;;4405380;32;20067;-74
2023/08/16 08:18:56;;;;;;;0.40;0.40;;;24.20;99.90;;;;;;4404016;32;20082;-74
2023/08/16 08:21:22;;;;;;;0.57;0.57;;;24.20;99.90;;;;;;4402710;32;20227;-74
2023/08/16 08:23:48;;;;;;;0.37;0.37;;;24.30;99.90;;;;;;4404151;32;20066;-75
2023/08/16 08:26:13;;;;;;;0.40;0.20;;;24.50;99.90;;;;;;4405694;32;20062;-74
2023/08/16 08:28:39;;;;;;;0.25;0.25;;;24.60;99.90;;;;;;4405009;32;20078;-74
2023/08/16 08:31:04;;;;;;;0.52;0.52;;;24.60;99.90;;;;;;4404399;32;20081;-74
2023/08/16 08:33:30;;;;;;;0.57;0.57;;;24.70;99.90;;;;;;4402426;32;20061;-74
2023/08/16 08:35:57;;;;;;;0.20;0.20;;;24.70;99.90;;;;;;4405319;32;20062;-73
2023/08/16 08:38:23;;;;;;;0.20;0.20;;;24.70;99.90;;;;;;4404821;32;20424;-74
2023/08/16 08:40:57;;;;;;;1.15;0.73;;;24.70;99.90;;;;;;4404432;32;20452;-73
2023/08/16 08:43:27;;;;;;;0.30;0.30;;;24.70;99.90;;;;;;4402599;32;20479;-74
2023/08/16 08:45:56;;;;;;;0.30;0.30;;;24.80;99.90;;;;;;4403879;32;20117;-74
2023/08/16 08:48:23;;;;;;;1.85;0.65;;;24.70;99.90;;;;;;4403182;32;20079;-73
2023/08/16 08:50:50;;;;;;;0.40;0.40;;;24.60;99.90;;;;;;4404760;32;20125;-74
2023/08/16 08:53:15;;;;;;;0.47;0.47;;;24.70;99.90;;;;;;4405373;32;20069;-74
2023/08/16 08:55:44;;;;;;;0.13;0.13;;;24.70;99.90;;;;;;4404052;32;20070;-72
2023/08/16 08:58:09;;;;;;;0.30;0.30;;;24.70;99.90;;;;;;4404277;32;20122;-74
2023/08/16 09:00:37;;;;;;;0.50;0.50;;;24.70;99.90;;;;;;4402198;32;20078;-73
2023/08/16 09:03:07;;;;;;;0.40;0.32;;;24.70;99.90;;;;;;4402349;32;20136;-74
2023/08/16 09:05:33;;;;;;;0.10;0.10;;;24.70;99.90;;;;;;4404483;32;20057;-73
2023/08/16 09:08:00;;;;;;;0.10;0.10;;;24.70;99.90;;;;;;4404829;32;20446;-74
2023/08/16 09:10:26;;;;;;;0.15;0.15;;;24.70;99.90;;;;;;4403080;32;20105;-73
2023/08/16 09:12:52;;;;;;;0.57;0.50;;;24.90;99.90;;;;;;4403596;32;20079;-74
2023/08/16 09:15:18;;;;;;;0.47;0.40;;;24.80;99.90;;;;;;4405313;32;20101;-75
2023/08/16 09:17:45;;;;;;;0.10;0.10;;;24.80;99.90;;;;;;4404454;32;20089;-74
2023/08/16 09:20:11;;;;;;;0.40;0.40;;;24.80;99.90;;;;;;4403087;32;20058;-75
2023/08/16 09:22:37;;;;;;;0.20;0.20;;;24.80;99.90;;;;;;4402580;32;20086;-75
2023/08/16 09:25:03;;;;;;;0.68;0.30;;;24.80;99.90;;;;;;4405715;32;20070;-75
2023/08/16 09:27:31;;;;;;;0.52;0.45;;;24.90;99.90;;;;;;4404502;32;20078;-75
2023/08/16 09:29:57;;;;;;;0.40;0.25;;;24.90;99.90;;;;;;4395206;32;20526;-75
2023/08/16 09:32:26;;;;;;;0.20;0.20;;;24.90;99.90;;;;;;4402293;32;20070;-75
2023/08/16 09:34:53;;;;;;;1.33;0.43;;;24.90;99.90;;;;;;4403553;32;20085;-75
2023/08/16 09:37:20;;;;;;;0.47;0.47;;;25.00;99.90;;;;;;4404261;32;20070;-75
2023/08/16 09:39:55;;;;;;;0.20;0.20;;;25.00;99.90;;;;;;4404546;32;20058;-75
2023/08/16 09:42:20;;;;;;;0.10;0.10;;;25.20;99.90;;;;;;4404735;32;20980;-74
2023/08/16 09:44:47;;;;;;;0.37;0.37;;;25.30;99.90;;;;;;4403920;32;20066;-75
2023/08/16 09:47:13;;;;;;;0.30;0.30;;;25.40;99.90;;;;;;4404140;32;20097;-75
2023/08/16 09:49:39;;;;;;;0.22;0.22;;;25.40;99.90;;;;;;4403148;32;20065;-74
2023/08/16 09:52:10;;;;;;;0.30;0.30;;;25.50;99.90;;;;;;4404163;32;20079;-74
2023/08/16 09:54:36;;;;;;;0.55;0.47;;;25.60;99.90;;;;;;4403450;32;20107;-75
2023/08/16 09:57:01;;;;;;;0.20;0.20;;;25.60;99.90;;;;;;4403085;32;20066;-74
2023/08/16 09:59:30;;;;;;;0.52;0.30;;;25.60;99.90;;;;;;4402205;32;20148;-75
2023/08/16 10:01:56;;;;;;;0.37;0.37;;;26.00;99.90;;;;;;4402215;32;20205;-75
2023/08/16 10:04:22;;;;;;;0.30;0.30;;;26.30;99.90;;;;;;4402367;32;20063;-74
2023/08/16 10:06:49;;;;;;;0.20;0.20;;;26.60;99.90;;;;;;4403358;32;20478;-74
2023/08/16 10:09:16;;;;;;;0.40;0.40;;;26.60;99.90;;;;;;4402459;32;20078;-75
2023/08/16 10:11:44;;;;;;;1.00;0.40;;;26.70;99.90;;;;;;4403111;32;20074;-75
2023/08/16 10:14:10;;;;;;;0.40;0.40;;;26.80;99.90;;;;;;4403196;32;20066;-74
2023/08/16 10:16:37;;;;;;;0.20;0.20;;;26.90;99.90;;;;;;4401646;32;20070;-74
2023/08/16 10:19:03;;;;;;;0.60;0.30;;;27.00;99.90;;;;;;4402337;32;20078;-75
2023/08/16 10:21:31;;;;;;;1.65;0.73;;;27.10;99.90;;;;;;4401468;32;20090;-75
2023/08/16 10:23:57;;;;;;;0.10;0.10;;;27.20;99.90;;;;;;4404142;32;20062;-74
2023/08/16 10:26:28;;;;;;;0.30;0.30;;;27.30;99.90;;;;;;4404438;32;20648;-75
2023/08/16 10:28:57;;;;;;;0.37;0.28;;;27.60;99.90;;;;;;4405079;32;20090;-74
2023/08/16 10:31:29;;;;;;;0.90;0.50;;;27.70;99.90;;;;;;4404033;32;20078;-74
2023/08/16 10:33:57;;;;;;;0.15;0.15;;;27.60;99.90;;;;;;4405166;32;20062;-74
2023/08/16 10:36:23;;;;;;;0.30;0.20;;;27.70;99.90;;;;;;4404735;32;20087;-74
2023/08/16 10:38:56;;;;;;;0.20;0.20;;;27.60;99.90;;;;;;4404736;32;20122;-74
2023/08/16 10:41:22;;;;;;;0.57;0.40;;;27.30;99.90;;;;;;4405466;32;20577;-74
2023/08/16 10:43:51;;;;;;;0.17;0.17;;;27.40;99.90;;;;;;4404853;32;20066;-75
2023/08/16 10:46:43;;;;;;;0.45;0.37;;;27.60;99.90;;;;;;4405475;32;20070;-74
2023/08/16 10:49:08;;;;;;;0.32;0.32;;;27.90;99.90;;;;;;4404968;32;20127;-74
2023/08/16 10:51:51;;;;;;;0.00;0.00;;;28.20;99.90;;;;;;4405337;32;20408;-74
2023/08/16 10:54:19;;;;;;;0.32;0.32;;;28.50;99.90;;;;;;4406458;32;20118;-74
2023/08/16 10:56:47;;;;;;;0.20;0.20;;;28.60;99.90;;;;;;4405796;32;20380;-74
2023/08/16 10:59:14;;;;;;;0.10;0.10;;;28.80;99.90;;;;;;4405490;32;20112;-74
2023/08/16 11:01:49;;;;;;;0.55;0.55;;;28.90;99.90;;;;;;4405897;32;20079;-74
2023/08/16 11:04:15;;;;;;;0.10;0.10;;;29.30;99.90;;;;;;4409901;32;20082;-74
2023/08/16 11:06:41;;;;;;;0.30;0.30;;;29.10;99.90;;;;;;4407917;32;20062;-74
2023/08/16 11:09:07;;;;;;;2.83;0.80;;;29.10;99.90;;;;;;4406219;32;20192;-74
2023/08/16 11:11:33;;;;;;;0.20;0.20;;;29.40;99.90;;;;;;4406688;32;20181;-74
2023/08/16 11:14:00;;;;;;;0.32;0.30;;;29.70;99.90;;;;;;4407133;32;20070;-74
2023/08/16 11:16:25;;;;;;;0.20;0.20;;;30.00;99.90;;;;;;4405109;32;20075;-74
2023/08/16 11:18:51;;;;;;;30.17;0.73;;;30.30;99.90;;;;;;4407374;32;20074;-74
2023/08/16 11:21:17;;;;;;;0.20;0.20;;;30.00;99.90;;;;;;4408065;32;20062;-74
2023/08/16 11:23:42;;;;;;;1.65;0.45;;;29.50;99.90;;;;;;4410590;32;20067;-74
2023/08/16 11:26:10;;;;;;;1.12;0.60;;;28.90;99.90;;;;;;4410051;32;20062;-75
2023/08/16 11:28:39;;;;;;;0.32;0.32;;;28.50;99.90;;;;;;4406866;32;20529;-74
2023/08/16 11:31:06;;;;;;;0.00;0.00;;;28.20;99.90;;;;;;4406048;32;20083;-74
2023/08/16 11:33:33;;;;;;;0.10;0.10;;;28.20;99.90;;;;;;4409205;32;20079;-74
2023/08/16 11:36:00;;;;;;;1.27;0.35;;;28.20;99.90;;;;;;4409639;32;20534;-74
2023/08/16 11:38:27;;;;;;;16.40;0.20;;;27.90;99.90;;;;;;4409472;32;20065;-74
2023/08/16 11:40:53;;;;;;;0.10;0.10;;;27.80;99.90;;;;;;4409611;32;20075;-74
2023/08/16 11:43:25;;;;;;;0.57;0.47;;;27.80;99.90;;;;;;4408774;32;20121;-74
2023/08/16 11:45:52;;;;;;;3.25;0.62;;;27.80;99.90;;;;;;4409798;32;20066;-74
2023/08/16 11:48:17;;;;;;;0.10;0.10;;;27.80;99.90;;;;;;4407882;32;95732;-74
2023/08/16 11:50:43;;;;;;;0.47;0.47;;;27.70;99.90;;;;;;4409735;32;20074;-73
2023/08/16 11:53:08;;;;;;;0.20;0.20;;;27.60;99.90;;;;;;4409153;32;20099;-74
2023/08/16 11:55:35;;;;;;;0.22;0.20;;;27.50;99.90;;;;;;4410352;32;20174;-73
2023/08/16 11:58:06;;;;;;;0.20;0.20;;;27.50;99.90;;;;;;4410384;32;20058;-74
2023/08/16 12:00:33;;;;;;;0.32;0.32;;;27.30;99.90;;;;;;4412025;32;20082;-74
2023/08/16 12:03:02;;;;;;;0.47;0.25;;;27.30;99.90;;;;;;4411834;32;20066;-73
2023/08/16 12:05:34;;;;;;;1.10;0.30;;;27.30;99.90;;;;;;4412167;32;20091;-73
2023/08/16 12:08:04;;;;;;;0.20;0.20;;;27.20;99.90;;;;;;4411785;32;20196;-73
2023/08/16 12:10:32;;;;;;;0.32;0.32;;;27.30;99.90;;;;;;4410503;32;20062;-73
2023/08/16 12:12:58;;;;;;;0.10;0.10;;;27.60;99.90;;;;;;4406957;32;20063;-74
2023/08/16 12:15:25;;;;;;;0.10;0.10;;;28.20;99.90;;;;;;4404971;32;20094;-74
2023/08/16 12:17:53;;;;;;;0.22;0.22;;;28.90;99.90;;;;;;4404568;32;20062;-74
2023/08/16 12:20:19;;;;;;;0.10;0.10;;;29.10;99.90;;;;;;4410114;32;20054;-74
2023/08/16 12:22:45;;;;;;;0.70;0.45;;;29.70;99.90;;;;;;4410744;32;20058;-74
2023/08/16 12:25:11;;;;;;;0.62;0.45;;;30.70;99.90;;;;;;4409797;32;20073;-74
2023/08/16 12:27:36;;;;;;;0.35;0.35;;;31.30;99.90;;;;;;4406863;32;20054;-74
2023/08/16 12:30:05;;;;;;;0.22;0.22;;;31.60;99.90;;;;;;4408680;32;20133;-74
2023/08/16 12:32:31;;;;;;;0.25;0.25;;;32.10;99.90;;;;;;4412575;32;20109;-74
2023/08/16 12:34:57;;;;;;;0.20;0.20;;;32.30;99.90;;;;;;4412465;32;20074;-73
2023/08/16 12:37:22;;;;;;;0.25;0.25;;;31.60;99.90;;;;;;4411089;32;20067;-73
2023/08/16 12:39:48;;;;;;;3.40;0.50;;;30.50;99.90;;;;;;4412366;32;20066;-73
2023/08/16 12:42:13;;;;;;;0.20;0.20;;;29.90;99.90;;;;;;4411441;32;20074;-73